createdAt,value
2019-04-06T00:00:41.278Z,44.20
2019-04-06T00:03:08.454Z,41.47
2019-04-06T00:05:35.624Z,50.50
2019-04-06T00:08:02.814Z,47.30
2019-04-06T00:10:30.094Z,45.47
2019-04-06T00:12:57.327Z,48.33
2019-04-06T00:15:24.510Z,43.70
2019-04-06T00:17:51.700Z,40.57
2019-04-06T00:20:18.913Z,37.03
2019-04-06T00:22:46.168Z,37.03
2019-04-06T00:25:13.366Z,38.23
2019-04-06T00:27:40.589Z,35.40
2019-04-06T00:30:07.828Z,33.67
2019-04-06T00:32:36.725Z,33.80
2019-04-06T00:35:05.081Z,30.47
2019-04-06T00:37:32.273Z,35.23
2019-04-06T00:39:59.460Z,32.70
2019-04-06T00:42:26.661Z,32.77
2019-04-06T00:44:53.848Z,32.80
2019-04-06T00:47:21.048Z,32.20
2019-04-06T00:49:48.222Z,30.03
2019-04-06T00:52:15.399Z,31.00
2019-04-06T00:54:42.580Z,27.53
2019-04-06T00:57:09.807Z,32.20
2019-04-06T00:59:37.002Z,28.73
2019-04-06T01:02:05.561Z,26.97
2019-04-06T01:04:32.726Z,25.53
2019-04-06T01:06:59.914Z,26.97
2019-04-06T01:09:27.109Z,26.97
2019-04-06T01:11:54.269Z,25.90
2019-04-06T01:14:21.589Z,24.67
2019-04-06T01:16:48.815Z,22.43
2019-04-06T01:19:16.001Z,23.57
2019-04-06T01:21:43.201Z,24.40
2019-04-06T01:24:10.386Z,28.90
2019-04-06T01:26:37.566Z,24.93
2019-04-06T01:29:04.750Z,26.00
2019-04-06T01:31:31.928Z,23.37
2019-04-06T01:33:59.411Z,24.33
2019-04-06T01:36:27.099Z,26.63
2019-04-06T01:38:54.295Z,22.07
2019-04-06T01:41:21.491Z,24.13
2019-04-06T01:43:48.670Z,21.10
2019-04-06T01:46:15.902Z,23.03
2019-04-06T01:48:43.142Z,23.17
2019-04-06T01:51:10.331Z,23.33
2019-04-06T01:53:37.516Z,29.67
2019-04-06T01:56:04.725Z,24.53
2019-04-06T01:58:31.976Z,24.67
2019-04-06T02:01:17.329Z,24.53
2019-04-06T02:03:44.584Z,24.37
2019-04-06T02:06:11.773Z,26.03
2019-04-06T02:08:38.978Z,25.07
2019-04-06T02:11:06.161Z,22.90
2019-04-06T02:13:33.360Z,24.70
2019-04-06T02:16:00.555Z,35.07
2019-04-06T02:18:27.734Z,26.80
2019-04-06T02:20:54.972Z,22.53
2019-04-06T02:23:22.230Z,22.87
2019-04-06T02:25:49.471Z,24.23
2019-04-06T02:28:16.638Z,24.57
2019-04-06T02:30:45.474Z,21.50
2019-04-06T02:33:26.267Z,24.73
2019-04-06T02:35:55.159Z,23.87
2019-04-06T02:38:23.961Z,23.17
2019-04-06T02:40:55.548Z,22.67
2019-04-06T02:43:24.450Z,23.33
2019-04-06T02:45:51.697Z,22.57
2019-04-06T02:48:18.913Z,20.70
2019-04-06T02:50:46.310Z,23.93
2019-04-06T02:53:13.549Z,22.33
2019-04-06T02:55:40.739Z,24.73
2019-04-06T02:58:07.925Z,21.93
2019-04-06T03:00:35.120Z,21.30
2019-04-06T03:03:02.516Z,23.50
2019-04-06T03:05:29.918Z,27.37
2019-04-06T03:07:57.222Z,23.37
2019-04-06T03:10:24.470Z,22.03
2019-04-06T03:12:51.652Z,24.20
2019-04-06T03:15:18.903Z,21.40
2019-04-06T03:17:46.130Z,24.37
2019-04-06T03:20:13.386Z,26.20
2019-04-06T03:22:40.578Z,31.57
2019-04-06T03:25:07.852Z,24.53
2019-04-06T03:27:35.311Z,29.27
2019-04-06T03:30:03.953Z,24.30
2019-04-06T03:32:31.135Z,22.33
2019-04-06T03:34:58.371Z,21.90
2019-04-06T03:37:25.574Z,25.30
2019-04-06T03:39:52.756Z,25.10
2019-04-06T03:42:19.944Z,25.77
2019-04-06T03:44:47.394Z,23.37
2019-04-06T03:47:14.660Z,25.87
2019-04-06T03:49:41.869Z,21.63
2019-04-06T03:52:09.045Z,27.50
2019-04-06T03:54:36.250Z,25.67
2019-04-06T03:57:14.833Z,22.90
2019-04-06T03:59:32.318Z,27.97
2019-04-06T04:01:59.536Z,27.77
2019-04-06T04:04:26.785Z,25.27
2019-04-06T04:06:53.973Z,24.07
2019-04-06T04:09:21.152Z,25.03
2019-04-06T04:11:48.342Z,23.20
2019-04-06T04:14:15.600Z,19.93
2019-04-06T04:16:42.859Z,28.83
2019-04-06T04:19:10.344Z,28.70
2019-04-06T04:21:37.524Z,24.20
2019-04-06T04:24:04.800Z,27.97
2019-04-06T04:26:33.608Z,25.60
2019-04-06T04:29:00.792Z,27.20
2019-04-06T04:31:27.974Z,25.23
2019-04-06T04:33:55.157Z,24.77
2019-04-06T04:36:22.355Z,25.10
2019-04-06T04:38:49.537Z,30.80
2019-04-06T04:41:16.737Z,25.93
2019-04-06T04:43:43.905Z,22.57
2019-04-06T04:46:11.110Z,31.87
2019-04-06T04:48:38.313Z,32.53
2019-04-06T04:51:05.479Z,24.60
2019-04-06T04:53:32.869Z,27.63
2019-04-06T04:56:00.043Z,25.57
2019-04-06T04:58:27.235Z,27.50
2019-04-06T05:00:54.403Z,30.60
2019-04-06T05:03:22.732Z,25.10
2019-04-06T05:05:49.978Z,27.23
2019-04-06T05:08:17.155Z,31.07
2019-04-06T05:10:44.405Z,31.53
2019-04-06T05:13:11.631Z,22.97
2019-04-06T05:15:52.450Z,30.73
2019-04-06T05:18:19.633Z,31.67
2019-04-06T05:20:46.815Z,31.20
2019-04-06T05:23:14.012Z,23.63
2019-04-06T05:25:43.796Z,31.67
2019-04-06T05:28:11.071Z,23.03
2019-04-06T05:30:38.238Z,31.43
2019-04-06T05:33:05.411Z,35.23
2019-04-06T05:35:32.596Z,33.77
2019-04-06T05:37:59.778Z,35.20
2019-04-06T05:40:27.060Z,26.67
2019-04-06T05:42:55.862Z,29.23
2019-04-06T05:45:23.037Z,32.37
2019-04-06T05:47:50.247Z,41.73
2019-04-06T05:50:17.421Z,31.50
2019-04-06T05:52:44.608Z,27.00
2019-04-06T05:55:11.828Z,25.50
2019-04-06T05:57:39.083Z,32.20
2019-04-06T06:00:09.846Z,32.17
2019-04-06T06:02:40.382Z,31.67
2019-04-06T06:05:05.122Z,35.83
2019-04-06T06:07:32.314Z,29.80
2019-04-06T06:09:59.500Z,34.17
2019-04-06T06:12:26.855Z,30.23
2019-04-06T06:14:54.171Z,38.60
2019-04-06T06:17:21.373Z,28.77
2019-04-06T06:19:48.578Z,55.30
2019-04-06T06:22:15.900Z,32.53
2019-04-06T06:24:43.999Z,30.33
2019-04-06T06:27:11.385Z,32.53
2019-04-06T06:29:38.656Z,31.90
2019-04-06T06:32:06.054Z,32.07
2019-04-06T06:34:33.872Z,33.70
2019-04-06T06:37:01.097Z,34.73
2019-04-06T06:39:28.292Z,34.00
2019-04-06T06:41:55.459Z,32.97
2019-04-06T06:44:22.663Z,35.07
2019-04-06T06:46:49.902Z,37.93
2019-04-06T06:49:17.108Z,32.03
2019-04-06T06:51:44.305Z,35.87
2019-04-06T06:54:11.495Z,31.20
2019-04-06T06:56:38.735Z,36.23
2019-04-06T06:59:05.967Z,31.50
2019-04-06T07:01:33.153Z,34.57
2019-04-06T07:04:00.349Z,36.50
2019-04-06T07:06:27.530Z,32.07
2019-04-06T07:08:54.866Z,34.30
2019-04-06T07:11:22.129Z,35.87
2019-04-06T07:13:49.330Z,33.67
2019-04-06T07:16:16.649Z,35.07
2019-04-06T07:18:43.962Z,31.57
2019-04-06T07:21:11.233Z,33.87
2019-04-06T07:23:38.425Z,37.20
2019-04-06T07:26:05.738Z,31.73
2019-04-06T07:28:38.452Z,34.00
2019-04-06T07:31:01.879Z,33.03
2019-04-06T07:33:29.056Z,35.40
2019-04-06T07:35:56.351Z,37.37
2019-04-06T07:38:23.534Z,31.47
2019-04-06T07:40:50.732Z,29.87
2019-04-06T07:43:17.965Z,32.33
2019-04-06T07:45:47.499Z,35.10
2019-04-06T07:48:14.382Z,33.27
2019-04-06T07:50:41.605Z,31.80
2019-04-06T07:53:08.794Z,37.17
2019-04-06T07:55:36.291Z,33.33
2019-04-06T07:58:04.100Z,37.37
2019-04-06T08:00:31.586Z,36.13
2019-04-06T08:03:00.453Z,29.90
2019-04-06T08:05:27.842Z,32.03
2019-04-06T08:07:55.091Z,31.47
2019-04-06T08:10:22.929Z,28.67
2019-04-06T08:12:50.141Z,32.03
2019-04-06T08:15:17.601Z,32.90
2019-04-06T08:17:45.302Z,32.40
2019-04-06T08:20:12.748Z,31.83
2019-04-06T08:22:44.632Z,30.30
2019-04-06T08:25:12.040Z,33.00
2019-04-06T08:27:39.316Z,36.20
2019-04-06T08:30:08.294Z,39.60
2019-04-06T08:32:38.544Z,40.20
2019-04-06T08:35:06.821Z,30.17
2019-04-06T08:37:34.276Z,31.83
2019-04-06T08:40:01.465Z,35.27
2019-04-06T08:42:28.741Z,34.90
2019-04-06T08:44:55.922Z,36.03
2019-04-06T08:47:23.120Z,28.07
2019-04-06T08:49:50.295Z,34.30
2019-04-06T08:52:17.635Z,34.47
2019-04-06T08:54:45.405Z,33.80
2019-04-06T08:57:12.577Z,29.77
2019-04-06T08:59:39.762Z,30.13
2019-04-06T09:02:06.937Z,29.27
2019-04-06T09:04:34.151Z,29.50
2019-04-06T09:07:01.602Z,31.53
2019-04-06T09:09:28.855Z,29.37
2019-04-06T09:11:57.010Z,28.77
2019-04-06T09:14:24.183Z,30.00
2019-04-06T09:16:51.354Z,33.33
2019-04-06T09:19:18.564Z,29.57
2019-04-06T09:21:45.760Z,32.97
2019-04-06T09:24:13.101Z,34.50
2019-04-06T09:26:40.294Z,36.47
2019-04-06T09:29:07.479Z,33.80
2019-04-06T09:31:34.760Z,27.40
2019-04-06T09:34:02.245Z,31.60
2019-04-06T09:36:29.631Z,32.83
2019-04-06T09:38:56.952Z,28.60
2019-04-06T09:41:26.094Z,28.07
2019-04-06T09:43:53.197Z,28.33
2019-04-06T09:46:22.038Z,31.63
2019-04-06T09:48:56.446Z,31.67
2019-04-06T09:51:41.735Z,32.30
2019-04-06T09:54:29.708Z,27.20
2019-04-06T09:57:04.661Z,26.73
2019-04-06T09:59:37.599Z,28.53
2019-04-06T10:02:09.469Z,25.27
2019-04-06T10:04:38.285Z,24.47
2019-04-06T10:07:07.110Z,30.20
2019-04-06T10:09:52.583Z,26.87
2019-04-06T10:12:24.919Z,30.27
2019-04-06T10:14:53.760Z,24.10
2019-04-06T10:17:22.681Z,24.77
2019-04-06T10:20:00.244Z,22.47
2019-04-06T10:22:29.068Z,22.77
2019-04-06T10:25:12.597Z,24.73
2019-04-06T10:27:41.415Z,21.27
2019-04-06T10:30:26.312Z,24.37
2019-04-06T10:33:10.126Z,34.13
2019-04-06T10:35:41.387Z,22.80
2019-04-06T10:38:19.179Z,27.83
2019-04-06T10:40:53.897Z,23.20
2019-04-06T10:43:22.891Z,22.47
2019-04-06T10:45:54.399Z,27.37
2019-04-06T10:48:29.252Z,21.97
2019-04-06T10:51:09.934Z,28.43
2019-04-06T10:53:41.774Z,30.67
2019-04-06T10:56:22.398Z,22.20
2019-04-06T10:58:54.042Z,24.30
2019-04-06T11:01:25.697Z,28.23
2019-04-06T11:04:00.403Z,26.60
2019-04-06T11:06:29.519Z,24.18
2019-04-06T11:08:58.928Z,25.57
2019-04-06T11:11:45.955Z,29.10
2019-04-06T11:14:17.194Z,20.23
2019-04-06T11:17:00.475Z,25.83
2019-04-06T11:19:34.928Z,37.93
2019-04-06T11:22:20.516Z,25.60
2019-04-06T11:24:55.194Z,28.93
2019-04-06T11:27:39.034Z,24.60
2019-04-06T11:30:24.605Z,27.00
2019-04-06T11:33:06.057Z,23.60
2019-04-06T11:35:36.771Z,29.53
2019-04-06T11:38:05.593Z,29.47
2019-04-06T11:40:36.042Z,22.62
2019-04-06T11:43:06.501Z,24.93
2019-04-06T11:45:51.378Z,22.82
2019-04-06T11:48:36.684Z,21.73
2019-04-06T11:51:21.822Z,27.27
2019-04-06T11:54:08.951Z,30.92
2019-04-06T11:56:43.831Z,23.60
2019-04-06T11:59:29.078Z,28.47
2019-04-06T12:01:57.978Z,24.98
2019-04-06T12:04:44.875Z,22.35
2019-04-06T12:07:32.182Z,29.27
2019-04-06T12:10:03.966Z,22.32
2019-04-06T12:12:49.235Z,21.17
2019-04-06T12:15:18.423Z,22.73
2019-04-06T12:17:48.096Z,21.30
2019-04-06T12:20:33.151Z,22.65
2019-04-06T12:23:18.138Z,21.23
2019-04-06T12:26:03.415Z,25.65
2019-04-06T12:28:32.307Z,22.75
2019-04-06T12:31:01.223Z,21.57
2019-04-06T12:33:32.770Z,25.27
2019-04-06T12:36:13.595Z,23.90
2019-04-06T12:38:59.181Z,25.50
2019-04-06T12:41:34.401Z,25.15
2019-04-06T12:44:11.290Z,20.97
2019-04-06T12:46:49.005Z,23.30
2019-04-06T12:49:17.840Z,26.95
2019-04-06T12:52:02.559Z,31.55
2019-04-06T12:54:36.941Z,23.55
2019-04-06T12:57:20.389Z,24.97
2019-04-06T13:00:00.760Z,20.93
2019-04-06T13:02:41.139Z,25.53
2019-04-06T13:05:19.015Z,20.12
2019-04-06T13:07:53.628Z,22.37
2019-04-06T13:10:25.377Z,21.12
2019-04-06T13:13:03.267Z,21.77
2019-04-06T13:15:41.248Z,22.65
2019-04-06T13:18:15.510Z,23.90
2019-04-06T13:20:44.340Z,20.03
2019-04-06T13:23:25.214Z,14.83
2019-04-06T13:26:07.551Z,19.03
2019-04-06T13:28:37.563Z,22.67
